Aiken, TX

8:08 AM CDT on July 30, 2014 (GMT -0500)
WT_Meso Floydada 2NE (MFLST2) Elev 3179 ft | 34.00 °N, 101.33 °W | Change Station

Current weather conditions updated 43 minutes ago

Clear
Clear
67 °F
Feels Like 67 °F
N
6
Wind Variable Wind from ESE
Gusts 8.0 mph

Today is forecast to be Much Warmer than yesterday.

Today
High -- | Low -- °F
--% Chance of Precip.
Yesterday
High -- | Low -- °F
Precip. -- in
6:55 AM 8:48 PM
Waxing Crescent, 11% visible
Pressure 30.06 in
Visibility 7.0 miles
Clouds Clear
Dew Point 64 °F
Humidity 94%
Rainfall -999.00 in
Snow Depth Not available.
UV 1 out of 12
Pollen 3.70 out of 12
Air Quality Not available.
Flu Activity Not available.
METAR KPVW 301255Z AUTO 16007KT 7SM CLR 20/19 A3006 RMK AO2 T01970187

More Conditions Fewer Conditions

Pressure 30.06 in
Visibility 7.0 miles
Clouds Clear
Dew Point 64 °F
Humidity 94%
Rainfall -999.00 in
Snow Depth Not available.
UV 1 out of 12
Pollen 3.70 out of 12
Air Quality Not available.
Flu Activity Not available.
METAR KPVW 301255Z AUTO 16007KT 7SM CLR 20/19 A3006 RMK AO2 T01970187

More Conditions Fewer Conditions

Nowcast | as of 7:04 am CDT on July 30, 2014

Through 8 am...scattered showers and will continue to move east southeast across the northern South Plains and northern rolling plains. Rainfall amounts will generally be under one quarter of an inch but a few locations could see up to one half inch of rain. Silverton...Turkey...Matador...Paducah...and Childress have the best chances at seeing heavier rainfall totals.

×

10-Day Weather Forecast

Almanac

Astronomy

Jul. 30, 2014 Rise Set
Actual Time 6:55 AM CDT 8:48 PM CDT
Civil Twilight 6:28 AM CDT 9:15 PM CDT
Nautical Twilight 5:54 AM CDT 9:49 PM CDT
Astronomical Twilight 5:19 AM CDT 10:24 PM CDT
Moon 10:17 AM CDT 10:44 PM CDT
Length of Visible Light 14h 47m
Length of Day
13h 52m
Tomorrow will be 1m 32s shorter.
Waxing Crescent, 11% of the Moon is Illuminated
Today
Waxing Crescent
Aug 3
First Quarter
Aug 10
Full
Aug 17
Last Quarter
Aug 25
New

Today's Extremes

State Highs State Lows

Community

WunderPhotos

Upload Photos

1,739,071 photos uploaded!

Nearby

Snow Depth

Station Depth Elevation
No new snow has been reported.

Earthquake Activity

City Distance Mag. Time & Date
No recent earthquake activity has been reported nearby.
Minimum magnitude displayed is 2.5.

Coastal Water Temperatures

Place Temperature
No Stations Reporting

Nearby Weather Stations

Station Location Temp. Dew Point Humidity Wind Precip. Elev Updated Type
WT_Meso Floydada 2NE, Floydada, TX 67 °F 64 °F 94% ESE  at  6 mph 0.00 in / hr 3179 ft 7:25 AM CDT MADIS
WT_Meso Plainview 1S, Plainview, TX 67 °F 65 °F 94% SE  at  7 mph 0.00 in / hr 3357 ft 7:25 AM CDT MADIS
WT_Meso Abernathy 5NE, Petersburg, TX 67 °F 64 °F 96% ESE  at  8 mph 0.00 in / hr 3333 ft 7:25 AM CDT MADIS

Show More Stations Show Fewer Stations